Terminal Aerodrome Forecast
Issued by NWS Tuscon, AZ

Home | Current Version | Previous Version | Text Only | Print | Product List | Glossary On
Versions: 1 2 3 4 5 6 7 8 9 10 11 12 13 14 15 16 17 18 19 20
000
FTUS45 KTWC 271739
TAFTUS
TAF
KTUS 271739Z 2718/2818 VRB03KT P6SM FEW100 SCT250
     FM272200 33006KT P6SM VCTS SCT080CB SCT120 BKN200
     FM280200 25007KT P6SM SCT080 BKN120
     FM280600 14006KT P6SM SCT140 BKN250=

USA.gov is the U.S. government's official web portal to all federal, state and local government web resources and services.